Time;durP1;ratioP1;P1;durP2;ratioP2;P2;SDS_P1;SDS_P2;PMS_P1;PMS_P2;Temp;Humidity;BMP_temperature;BMP_pressure;BME280_temperature;BME280_humidity;BME280_pressure;Samples;Min_cycle;Max_cycle;Signal;HPM_P1;HPM_P2
2020/12/10 00:01:11;;;;;;;5.43;4.60;;;2.60;99.90;;;;;;5034396;28;20199;-77
2020/12/10 00:03:38;;;;;;;5.37;4.77;;;2.70;99.90;;;;;;5051900;28;20833;-77
2020/12/10 00:06:04;;;;;;;5.17;4.67;;;2.70;99.90;;;;;;5033881;28;20455;-77
2020/12/10 00:08:31;;;;;;;5.00;4.00;;;2.70;99.90;;;;;;5035614;28;20288;-77
2020/12/10 00:10:58;;;;;;;6.20;4.40;;;2.70;99.90;;;;;;5033437;28;20684;-77
2020/12/10 00:13:24;;;;;;;5.37;4.43;;;2.70;99.90;;;;;;5033689;28;20608;-77
2020/12/10 00:15:51;;;;;;;6.23;4.77;;;2.70;99.90;;;;;;5034431;28;20200;-77
2020/12/10 00:18:17;;;;;;;5.60;4.60;;;2.60;99.90;;;;;;5033730;28;20211;-77
2020/12/10 00:20:44;;;;;;;5.97;4.93;;;2.70;99.90;;;;;;5033810;28;20227;-77
2020/12/10 00:23:11;;;;;;;7.60;5.23;;;2.60;99.90;;;;;;5033921;28;20211;-77
2020/12/10 00:25:37;;;;;;;5.80;4.80;;;2.60;99.90;;;;;;5033475;28;20261;-77
2020/12/10 00:28:04;;;;;;;5.77;5.13;;;2.60;99.90;;;;;;5036314;28;20917;-77
2020/12/10 00:30:31;;;;;;;4.97;4.40;;;2.60;99.90;;;;;;5053580;28;20231;-77
2020/12/10 00:32:57;;;;;;;5.43;4.70;;;2.60;99.90;;;;;;5052745;28;20241;-77
2020/12/10 00:35:25;;;;;;;5.30;4.63;;;2.60;99.90;;;;;;5033502;28;20200;-77
2020/12/10 00:37:52;;;;;;;5.77;4.77;;;2.60;99.90;;;;;;5034004;28;20281;-78
2020/12/10 00:40:19;;;;;;;5.80;5.30;;;2.60;99.90;;;;;;5032952;28;20210;-77
2020/12/10 00:42:46;;;;;;;8.63;5.37;;;2.60;99.90;;;;;;5050718;28;20207;-77
2020/12/10 00:45:12;;;;;;;5.57;4.97;;;2.60;99.90;;;;;;5051519;28;20195;-77
2020/12/10 00:47:40;;;;;;;7.00;5.77;;;2.60;99.90;;;;;;5033132;28;20211;-77
2020/12/10 00:50:08;;;;;;;6.97;6.17;;;2.60;99.90;;;;;;5033246;28;20199;-77
2020/12/10 00:52:35;;;;;;;6.57;5.87;;;2.60;99.90;;;;;;5033305;28;20208;-77
2020/12/10 00:55:02;;;;;;;6.47;5.77;;;2.60;99.90;;;;;;5050477;28;20210;-77
2020/12/10 00:57:29;;;;;;;6.67;5.50;;;2.60;99.90;;;;;;5033477;28;20208;-77
2020/12/10 00:59:56;;;;;;;6.93;6.00;;;2.60;99.90;;;;;;5033059;28;20707;-77
2020/12/10 01:02:22;;;;;;;6.20;5.13;;;2.60;99.90;;;;;;5032420;28;20258;-77
2020/12/10 01:04:49;;;;;;;5.87;5.20;;;2.60;99.90;;;;;;5048872;28;20210;-77
2020/12/10 01:07:16;;;;;;;7.67;5.97;;;2.60;99.90;;;;;;5053061;28;20202;-77
2020/12/10 01:09:43;;;;;;;6.60;5.30;;;2.60;99.90;;;;;;5053232;28;20610;-77
2020/12/10 01:12:09;;;;;;;6.50;5.37;;;2.70;99.90;;;;;;5053107;28;20225;-77
2020/12/10 01:14:36;;;;;;;6.43;5.47;;;2.60;99.90;;;;;;5041251;28;20212;-77
2020/12/10 01:17:03;;;;;;;6.70;5.47;;;2.70;99.90;;;;;;5032260;28;20207;-77
2020/12/10 01:19:30;;;;;;;6.83;5.20;;;2.60;99.90;;;;;;5032565;28;20223;-77
2020/12/10 01:21:57;;;;;;;5.73;5.03;;;2.60;99.90;;;;;;5032820;28;20621;-77
2020/12/10 01:24:23;;;;;;;7.07;5.90;;;2.60;99.90;;;;;;5031939;28;20204;-77
2020/12/10 01:26:50;;;;;;;7.57;5.47;;;2.60;99.90;;;;;;5032877;28;20215;-77
2020/12/10 01:29:16;;;;;;;8.07;6.37;;;2.60;99.90;;;;;;5045369;28;20195;-77
2020/12/10 01:31:47;;;;;;;7.10;5.83;;;2.60;99.90;;;;;;5069949;28;21052;-77
2020/12/10 01:34:14;;;;;;;7.77;6.03;;;2.60;99.90;;;;;;5042118;28;20756;-77
2020/12/10 01:36:41;;;;;;;7.80;6.33;;;2.60;99.90;;;;;;5032803;28;20630;-77
2020/12/10 01:39:08;;;;;;;8.77;5.73;;;2.60;99.90;;;;;;5032172;28;20231;-77
2020/12/10 01:41:35;;;;;;;7.90;6.10;;;2.60;99.90;;;;;;5032879;28;20195;-77
2020/12/10 01:44:10;;;;;;;6.83;5.60;;;2.60;99.90;;;;;;5032337;28;20658;-77
2020/12/10 01:46:38;;;;;;;7.00;6.03;;;2.60;99.90;;;;;;5031865;28;20597;-76
2020/12/10 01:49:06;;;;;;;6.97;5.67;;;2.60;99.90;;;;;;5031982;28;20204;-77
2020/12/10 01:51:34;;;;;;;7.47;6.07;;;2.60;99.90;;;;;;5032644;28;20566;-77
2020/12/10 01:54:02;;;;;;;6.10;5.00;;;2.60;99.90;;;;;;5031634;28;20219;-77
2020/12/10 01:56:29;;;;;;;7.53;6.10;;;2.60;99.90;;;;;;5032060;28;20211;-77
2020/12/10 01:58:57;;;;;;;7.07;6.10;;;2.60;99.90;;;;;;5050039;28;20223;-77
2020/12/10 02:01:24;;;;;;;7.17;5.77;;;2.60;99.90;;;;;;5031755;28;20231;-77
2020/12/10 02:03:51;;;;;;;6.33;5.67;;;2.60;99.90;;;;;;5032197;28;20253;-77
2020/12/10 02:06:18;;;;;;;5.83;5.00;;;2.60;99.90;;;;;;5032075;28;20261;-77
2020/12/10 02:08:45;;;;;;;6.43;5.33;;;2.60;99.90;;;;;;5031677;28;20211;-77
2020/12/10 02:11:12;;;;;;;7.17;5.60;;;2.60;99.90;;;;;;5032248;28;20212;-77
2020/12/10 02:13:39;;;;;;;5.60;5.00;;;2.60;99.90;;;;;;5031094;28;20742;-77
2020/12/10 02:16:07;;;;;;;6.20;4.93;;;2.60;99.90;;;;;;5030968;28;20665;-77
2020/12/10 02:18:34;;;;;;;5.60;4.50;;;2.60;99.90;;;;;;5031912;28;20220;-77
2020/12/10 02:21:02;;;;;;;4.97;4.47;;;2.50;99.90;;;;;;5031778;28;20242;-77
2020/12/10 02:23:29;;;;;;;5.53;4.60;;;2.60;99.90;;;;;;5031260;28;20211;-77
2020/12/10 02:25:56;;;;;;;5.90;4.50;;;2.60;99.90;;;;;;5031938;28;20207;-77
2020/12/10 02:28:23;;;;;;;5.47;4.77;;;2.60;99.90;;;;;;5036849;28;20199;-77
2020/12/10 02:30:49;;;;;;;4.07;3.63;;;2.60;99.90;;;;;;5047790;28;20266;-77
2020/12/10 02:33:18;;;;;;;4.83;4.30;;;2.60;99.90;;;;;;5048187;28;20247;-77
2020/12/10 02:35:45;;;;;;;4.80;4.30;;;2.60;99.90;;;;;;5048016;28;20208;-77
2020/12/10 02:38:12;;;;;;;4.20;3.80;;;2.60;99.90;;;;;;5048095;28;20219;-78
2020/12/10 02:40:45;;;;;;;4.77;4.20;;;2.60;99.90;;;;;;5048371;28;20203;-78
2020/12/10 02:43:13;;;;;;;4.80;3.70;;;2.60;99.90;;;;;;5048340;28;20211;-77
2020/12/10 02:45:40;;;;;;;4.20;3.80;;;2.60;99.90;;;;;;5047959;28;20226;-77
2020/12/10 02:48:09;;;;;;;4.37;3.43;;;2.60;99.90;;;;;;5048452;28;20287;-77
2020/12/10 02:50:39;;;;;;;3.37;3.00;;;2.60;99.90;;;;;;5048085;28;20219;-77
2020/12/10 02:53:07;;;;;;;3.63;3.27;;;2.60;99.90;;;;;;5047797;28;20207;-78
2020/12/10 02:55:34;;;;;;;3.97;3.40;;;2.60;99.90;;;;;;5049630;28;20203;-78
2020/12/10 02:58:01;;;;;;;3.10;2.80;;;2.60;99.90;;;;;;5047827;28;20999;-78
2020/12/10 03:00:29;;;;;;;3.10;2.80;;;2.60;99.90;;;;;;5047731;28;20199;-77
2020/12/10 03:02:56;;;;;;;3.03;2.73;;;2.60;99.90;;;;;;5048294;28;20219;-78
2020/12/10 03:05:23;;;;;;;3.10;2.80;;;2.60;99.90;;;;;;5047356;28;20227;-78
2020/12/10 03:07:49;;;;;;;3.03;2.73;;;2.60;99.90;;;;;;5047956;28;20226;-78
2020/12/10 03:10:16;;;;;;;3.07;2.77;;;2.60;99.90;;;;;;5049257;28;20196;-78
2020/12/10 03:12:43;;;;;;;2.50;2.30;;;2.60;99.90;;;;;;5047580;28;20653;-77
2020/12/10 03:15:09;;;;;;;2.90;2.60;;;2.60;99.90;;;;;;5046718;28;20649;-77
2020/12/10 03:17:36;;;;;;;2.80;2.60;;;2.60;99.90;;;;;;5047554;28;20231;-77
2020/12/10 03:20:04;;;;;;;3.13;2.83;;;2.60;99.90;;;;;;5047366;28;20215;-78
2020/12/10 03:22:31;;;;;;;3.10;2.80;;;2.60;99.90;;;;;;5047256;28;20696;-77
2020/12/10 03:24:58;;;;;;;3.00;2.40;;;2.60;99.90;;;;;;5047353;28;20211;-77
2020/12/10 03:27:26;;;;;;;4.83;2.93;;;2.60;99.90;;;;;;5051102;28;20204;-77
2020/12/10 03:29:53;;;;;;;2.90;2.70;;;2.60;99.90;;;;;;5050516;28;20231;-77
2020/12/10 03:32:20;;;;;;;3.00;2.73;;;2.60;99.90;;;;;;5050859;28;20212;-77
2020/12/10 03:34:46;;;;;;;2.87;2.57;;;2.60;99.90;;;;;;5035803;28;20218;-77
2020/12/10 03:37:13;;;;;;;3.03;2.73;;;2.60;99.90;;;;;;5031032;28;20261;-77
2020/12/10 03:39:40;;;;;;;3.50;2.90;;;2.60;99.90;;;;;;5031064;28;20286;-77
2020/12/10 03:42:06;;;;;;;2.70;2.50;;;2.60;99.90;;;;;;5031868;28;20712;-77
2020/12/10 03:44:33;;;;;;;3.47;3.17;;;2.60;99.90;;;;;;5032176;28;20262;-77
2020/12/10 03:46:59;;;;;;;3.10;2.80;;;2.60;99.90;;;;;;5031093;28;20628;-77
2020/12/10 03:49:26;;;;;;;3.00;2.60;;;2.60;99.90;;;;;;5030670;28;20551;-77
2020/12/10 03:51:53;;;;;;;2.60;2.40;;;2.60;99.90;;;;;;5031893;28;20208;-77
2020/12/10 03:54:20;;;;;;;2.37;2.17;;;2.60;99.90;;;;;;5030509;28;20243;-77
2020/12/10 03:56:46;;;;;;;2.90;2.67;;;2.60;99.90;;;;;;5030500;28;20196;-77
2020/12/10 03:59:13;;;;;;;2.70;2.47;;;2.60;99.90;;;;;;5031458;28;20669;-77
2020/12/10 04:01:40;;;;;;;3.10;2.80;;;2.60;99.90;;;;;;5032836;28;20631;-77
2020/12/10 04:04:07;;;;;;;2.67;2.27;;;2.60;99.90;;;;;;5031226;28;20208;-77
2020/12/10 04:06:34;;;;;;;2.80;2.50;;;2.60;99.90;;;;;;5030550;28;20520;-77
2020/12/10 04:09:00;;;;;;;3.97;2.60;;;2.60;99.90;;;;;;5031030;28;20301;-77
2020/12/10 04:11:27;;;;;;;2.73;2.20;;;2.60;99.90;;;;;;5030223;28;20850;-77
2020/12/10 04:13:54;;;;;;;2.10;1.90;;;2.60;99.90;;;;;;5030335;28;20200;-77
2020/12/10 04:16:21;;;;;;;2.77;2.47;;;2.60;99.90;;;;;;5030817;28;20265;-77
2020/12/10 04:18:49;;;;;;;3.70;2.30;;;2.60;99.90;;;;;;5030232;28;20224;-77
2020/12/10 04:21:15;;;;;;;2.70;2.40;;;2.60;99.90;;;;;;5030336;28;20701;-77
2020/12/10 04:23:42;;;;;;;2.70;2.50;;;2.60;99.90;;;;;;5030460;28;20232;-77
2020/12/10 04:26:09;;;;;;;2.47;2.27;;;2.60;99.90;;;;;;5030102;28;20205;-77
2020/12/10 04:28:35;;;;;;;2.20;2.00;;;2.60;99.90;;;;;;5038671;28;20246;-77
2020/12/10 04:31:04;;;;;;;1.93;1.80;;;2.60;99.90;;;;;;5049990;28;20243;-77
2020/12/10 04:33:31;;;;;;;2.30;1.80;;;2.60;99.90;;;;;;5049968;28;20700;-77
2020/12/10 04:35:58;;;;;;;2.53;2.30;;;2.60;99.90;;;;;;5051242;28;20651;-78
2020/12/10 04:38:25;;;;;;;2.07;1.87;;;2.60;99.90;;;;;;5049282;28;20219;-78
2020/12/10 04:40:52;;;;;;;1.63;1.53;;;2.60;99.90;;;;;;5049583;28;20240;-77
2020/12/10 04:43:26;;;;;;;2.53;1.90;;;2.50;99.90;;;;;;5050032;28;20596;-77
2020/12/10 04:45:58;;;;;;;2.27;1.93;;;2.50;99.90;;;;;;5049923;28;20184;-77
2020/12/10 04:48:30;;;;;;;1.80;1.70;;;2.50;99.90;;;;;;5049946;28;20222;-77
2020/12/10 04:51:00;;;;;;;2.00;1.80;;;2.50;99.90;;;;;;5049226;28;20699;-77
2020/12/10 04:53:28;;;;;;;2.03;1.70;;;2.40;99.90;;;;;;5049416;28;20215;-77
2020/12/10 04:56:07;;;;;;;1.87;1.77;;;2.40;99.90;;;;;;5049304;28;20218;-77
2020/12/10 04:58:34;;;;;;;2.00;1.80;;;2.40;99.90;;;;;;5049354;28;20274;-77
2020/12/10 05:01:02;;;;;;;1.77;1.67;;;2.40;99.90;;;;;;5050550;28;20200;-77
2020/12/10 05:03:30;;;;;;;1.80;1.57;;;2.40;99.90;;;;;;5049804;28;20254;-77
2020/12/10 05:06:14;;;;;;;3.10;1.80;;;2.30;99.90;;;;;;5049504;28;20427;-77
2020/12/10 05:08:42;;;;;;;2.17;1.53;;;2.30;99.90;;;;;;5049590;28;20203;-77
2020/12/10 05:11:10;;;;;;;2.40;1.53;;;2.30;99.90;;;;;;5049375;28;20218;-77
2020/12/10 05:13:37;;;;;;;2.07;1.53;;;2.30;99.90;;;;;;5048719;28;20700;-77
2020/12/10 05:16:20;;;;;;;2.07;1.70;;;2.30;99.90;;;;;;5049080;28;20261;-77
2020/12/10 05:18:47;;;;;;;1.37;1.27;;;2.30;99.90;;;;;;5048775;28;20299;-77
2020/12/10 05:21:16;;;;;;;1.53;1.43;;;2.20;99.90;;;;;;5048806;28;20276;-77
2020/12/10 05:23:43;;;;;;;1.50;1.40;;;2.20;99.90;;;;;;5049005;28;20204;-77
2020/12/10 05:26:11;;;;;;;1.27;1.17;;;2.20;99.90;;;;;;5048960;28;20224;-77
2020/12/10 05:28:41;;;;;;;1.50;1.40;;;2.20;99.90;;;;;;5048732;28;20203;-77
2020/12/10 05:31:10;;;;;;;1.40;1.30;;;2.20;99.90;;;;;;5048704;28;20285;-77
2020/12/10 05:33:52;;;;;;;1.47;1.37;;;2.20;99.90;;;;;;5043770;28;20254;-77
2020/12/10 05:36:19;;;;;;;1.53;1.40;;;2.20;99.90;;;;;;5029204;28;20193;-77
2020/12/10 05:39:02;;;;;;;1.60;1.50;;;2.20;99.90;;;;;;5028855;28;20239;-77
2020/12/10 05:41:29;;;;;;;1.70;1.60;;;2.20;99.90;;;;;;5028882;28;20633;-77
2020/12/10 05:44:16;;;;;;;1.67;1.57;;;2.30;99.90;;;;;;5028853;28;20204;-77
2020/12/10 05:46:44;;;;;;;1.70;1.60;;;2.30;99.90;;;;;;5028794;28;20211;-77
2020/12/10 05:49:13;;;;;;;1.87;1.77;;;2.20;99.90;;;;;;5027921;28;20579;-77
2020/12/10 05:51:45;;;;;;;2.30;1.80;;;2.30;99.90;;;;;;5028643;28;20207;-77
2020/12/10 05:54:14;;;;;;;1.73;1.63;;;2.20;99.90;;;;;;5028572;28;20626;-77
2020/12/10 05:57:00;;;;;;;2.13;1.90;;;2.20;99.90;;;;;;5030040;28;20228;-77
2020/12/10 05:59:29;;;;;;;1.90;1.80;;;2.20;99.90;;;;;;5029536;28;20208;-77
2020/12/10 06:02:07;;;;;;;2.00;1.90;;;2.20;99.90;;;;;;5028712;28;20637;-77
2020/12/10 06:04:34;;;;;;;2.40;2.20;;;2.20;99.90;;;;;;5028932;28;20197;-77
2020/12/10 06:07:02;;;;;;;2.33;2.13;;;2.10;99.90;;;;;;5028166;28;20224;-77
2020/12/10 06:09:29;;;;;;;2.33;2.10;;;2.10;99.90;;;;;;5028675;28;20200;-77
2020/12/10 06:12:04;;;;;;;2.20;2.00;;;2.10;99.90;;;;;;5029064;28;20208;-77
2020/12/10 06:14:31;;;;;;;2.23;2.03;;;2.10;99.90;;;;;;5028598;28;20262;-77
2020/12/10 06:17:09;;;;;;;2.50;2.30;;;2.10;99.90;;;;;;5028644;28;20208;-77
2020/12/10 06:19:38;;;;;;;2.30;2.10;;;2.10;99.90;;;;;;5027767;28;20215;-77
2020/12/10 06:22:33;;;;;;;2.30;2.10;;;2.10;99.90;;;;;;5027857;28;20238;-77
2020/12/10 06:25:00;;;;;;;2.83;2.50;;;2.10;99.90;;;;;;5028530;28;20204;-77
2020/12/10 06:27:31;;;;;;;2.47;1.83;;;2.10;99.90;;;;;;5027723;28;20206;-77
2020/12/10 06:30:17;;;;;;;1.70;1.60;;;2.10;99.90;;;;;;5046464;28;20281;-77
2020/12/10 06:32:49;;;;;;;5.53;2.33;;;2.10;99.90;;;;;;5048127;28;20464;-77
2020/12/10 06:35:34;;;;;;;2.40;2.20;;;2.10;99.90;;;;;;5047508;28;20290;-77
2020/12/10 06:38:07;;;;;;;2.37;2.17;;;2.10;99.90;;;;;;5047681;28;20211;-77
2020/12/10 06:40:41;;;;;;;2.40;2.20;;;2.10;99.90;;;;;;5049547;28;20192;-77
2020/12/10 06:43:09;;;;;;;2.53;2.20;;;2.10;99.90;;;;;;5047496;28;20221;-77
2020/12/10 06:45:38;;;;;;;2.40;2.20;;;2.10;99.90;;;;;;5047993;28;20200;-77
2020/12/10 06:48:07;;;;;;;2.50;2.30;;;2.10;99.90;;;;;;5049340;28;20207;-77
2020/12/10 06:50:39;;;;;;;2.73;2.50;;;2.10;99.90;;;;;;5047392;28;20196;-77
2020/12/10 06:53:14;;;;;;;2.50;2.30;;;2.10;99.90;;;;;;5048086;28;20203;-77
2020/12/10 06:58:51;;;;;;;2.80;2.30;;;2.10;99.90;;;;;;5048723;28;20195;-77
2020/12/10 07:01:19;;;;;;;2.23;2.03;;;2.10;99.90;;;;;;5047411;28;20199;-77
2020/12/10 07:03:46;;;;;;;2.63;2.27;;;2.10;99.90;;;;;;5051919;28;20203;-77
2020/12/10 07:06:19;;;;;;;2.53;2.10;;;2.20;99.90;;;;;;5051655;28;20191;-77
2020/12/10 07:09:04;;;;;;;2.40;2.20;;;2.20;99.90;;;;;;5051592;28;20245;-77
2020/12/10 07:11:39;;;;;;;2.33;2.13;;;2.30;99.90;;;;;;5052422;28;20664;-77
2020/12/10 07:14:30;;;;;;;2.83;2.40;;;2.20;99.90;;;;;;5051490;28;20629;-77
2020/12/10 07:16:57;;;;;;;3.27;2.73;;;2.30;99.90;;;;;;5052227;28;20188;-77
2020/12/10 07:19:25;;;;;;;2.57;2.37;;;2.30;99.90;;;;;;5051204;28;20231;-77
2020/12/10 07:21:52;;;;;;;2.13;1.93;;;2.30;99.90;;;;;;5051484;28;20231;-77
2020/12/10 07:24:18;;;;;;;2.20;2.00;;;2.30;99.90;;;;;;5051563;28;20199;-77
2020/12/10 07:26:45;;;;;;;1.97;1.83;;;2.30;99.90;;;;;;5052373;28;20257;-77
2020/12/10 07:29:13;;;;;;;2.50;2.30;;;2.30;99.90;;;;;;5052537;28;20207;-78
2020/12/10 07:31:42;;;;;;;2.50;2.30;;;2.30;99.90;;;;;;5054974;28;20563;-77
2020/12/10 07:34:12;;;;;;;2.10;2.00;;;2.30;99.90;;;;;;5044270;28;20265;-78
2020/12/10 07:36:52;;;;;;;2.53;2.13;;;2.30;99.90;;;;;;5035009;28;20203;-77
2020/12/10 07:39:30;;;;;;;2.20;2.00;;;2.30;99.90;;;;;;5034582;28;20734;-78
2020/12/10 07:41:57;;;;;;;2.67;2.13;;;2.30;99.90;;;;;;5034551;28;20195;-78
2020/12/10 07:44:25;;;;;;;1.90;1.80;;;2.40;99.90;;;;;;5035245;28;20200;-77
2020/12/10 07:46:52;;;;;;;2.17;1.97;;;2.40;99.90;;;;;;5034376;28;20257;-77
2020/12/10 07:49:32;;;;;;;2.30;2.10;;;2.40;99.90;;;;;;5033914;28;20257;-77
2020/12/10 07:52:08;;;;;;;2.03;1.77;;;2.40;99.90;;;;;;5052749;28;20295;-77
2020/12/10 07:54:49;;;;;;;2.50;2.30;;;2.40;99.90;;;;;;5034540;28;20273;-77
2020/12/10 07:57:29;;;;;;;2.77;2.47;;;2.40;99.90;;;;;;5034147;28;20624;-78
2020/12/10 08:00:05;;;;;;;1.93;1.83;;;2.40;99.90;;;;;;5034029;28;20242;-77
2020/12/10 08:03:02;;;;;;;2.10;2.00;;;2.50;99.90;;;;;;5034188;28;20192;-77
2020/12/10 08:05:29;;;;;;;2.43;2.10;;;2.50;99.90;;;;;;5034168;28;20283;-77
2020/12/10 08:07:57;;;;;;;2.20;2.00;;;2.50;99.90;;;;;;5034652;28;20206;-77
2020/12/10 08:10:35;;;;;;;2.47;2.20;;;2.50;99.90;;;;;;5034503;28;20230;-78
2020/12/10 08:13:19;;;;;;;1.97;1.80;;;2.50;99.90;;;;;;5051353;28;20207;-77
2020/12/10 08:15:48;;;;;;;2.17;1.97;;;2.50;99.90;;;;;;5034264;28;20214;-77
2020/12/10 08:18:18;;;;;;;2.37;2.07;;;2.50;99.90;;;;;;5033999;28;20206;-77
2020/12/10 08:20:46;;;;;;;2.17;1.97;;;2.50;99.90;;;;;;5034027;28;20215;-77
2020/12/10 08:23:14;;;;;;;3.47;2.03;;;2.50;99.90;;;;;;5034163;28;20200;-78
2020/12/10 08:25:42;;;;;;;1.70;1.60;;;2.50;99.90;;;;;;5033451;28;20203;-77
2020/12/10 08:28:10;;;;;;;2.10;1.90;;;2.50;99.90;;;;;;5037233;28;20197;-77
2020/12/10 08:30:49;;;;;;;1.90;1.70;;;2.60;99.90;;;;;;5053663;28;20256;-77
2020/12/10 08:33:16;;;;;;;3.00;1.70;;;2.60;99.90;;;;;;5051054;28;20225;-78
2020/12/10 08:35:44;;;;;;;1.70;1.60;;;2.60;99.90;;;;;;5033942;28;20200;-77
2020/12/10 08:38:11;;;;;;;2.17;1.97;;;2.60;99.90;;;;;;5033194;28;20215;-77
2020/12/10 08:40:38;;;;;;;1.67;1.57;;;2.60;99.90;;;;;;5033377;28;20234;-78
2020/12/10 08:43:14;;;;;;;1.87;1.57;;;2.60;99.90;;;;;;5034112;28;20215;-78
2020/12/10 08:45:45;;;;;;;2.03;1.83;;;2.60;99.90;;;;;;5033944;28;20203;-77
2020/12/10 08:48:23;;;;;;;2.03;1.80;;;2.60;99.90;;;;;;5051698;28;20271;-77
2020/12/10 08:50:55;;;;;;;2.30;2.07;;;2.60;99.90;;;;;;5033945;28;20187;-77
2020/12/10 08:53:23;;;;;;;1.90;1.70;;;2.60;99.90;;;;;;5051659;28;20261;-77
2020/12/10 08:55:53;;;;;;;2.67;1.90;;;2.70;99.90;;;;;;5033088;28;20211;-77
2020/12/10 08:58:28;;;;;;;1.93;1.83;;;2.70;99.90;;;;;;5033139;28;20263;-77
2020/12/10 09:00:59;;;;;;;2.40;2.20;;;2.70;99.90;;;;;;5033039;28;20202;-77
2020/12/10 09:03:26;;;;;;;2.23;2.03;;;2.70;99.90;;;;;;5033475;28;20673;-78
2020/12/10 09:05:53;;;;;;;2.70;2.27;;;2.70;99.90;;;;;;5033110;28;20227;-78
2020/12/10 09:08:19;;;;;;;2.07;1.87;;;2.70;99.90;;;;;;5033478;28;20196;-78
2020/12/10 09:10:47;;;;;;;2.23;2.03;;;2.70;99.90;;;;;;5050472;28;20199;-78
2020/12/10 09:13:14;;;;;;;1.70;1.60;;;2.70;99.90;;;;;;5033796;28;20223;-77
2020/12/10 09:15:43;;;;;;;2.03;1.83;;;2.70;99.90;;;;;;5033819;28;20208;-77
2020/12/10 09:18:11;;;;;;;2.30;2.10;;;2.70;99.90;;;;;;5032070;28;20200;-77
2020/12/10 09:20:38;;;;;;;2.30;2.10;;;2.80;99.90;;;;;;5032613;28;20231;-77
2020/12/10 09:23:05;;;;;;;2.20;2.00;;;2.80;99.90;;;;;;5032403;28;20200;-77
2020/12/10 09:25:32;;;;;;;2.03;1.60;;;2.90;99.90;;;;;;5031993;28;20208;-77
2020/12/10 09:27:59;;;;;;;2.20;1.90;;;2.90;99.90;;;;;;5034504;28;20200;-77
2020/12/10 09:30:26;;;;;;;2.00;1.80;;;3.00;99.90;;;;;;5048596;28;20578;-77
2020/12/10 09:32:53;;;;;;;1.70;1.60;;;3.00;99.90;;;;;;5048484;28;20207;-77
2020/12/10 09:35:20;;;;;;;2.83;1.93;;;3.10;99.90;;;;;;5049346;28;20211;-77
2020/12/10 09:37:47;;;;;;;1.87;1.73;;;3.10;99.90;;;;;;5048916;28;20262;-77
2020/12/10 09:40:15;;;;;;;2.57;1.53;;;3.20;99.90;;;;;;5048515;28;20242;-77
2020/12/10 09:42:44;;;;;;;1.60;1.47;;;3.20;99.90;;;;;;5048544;28;20227;-77
2020/12/10 09:45:14;;;;;;;2.00;1.90;;;3.20;99.90;;;;;;5048547;28;20220;-77
2020/12/10 09:47:42;;;;;;;1.80;1.70;;;3.30;99.90;;;;;;5048415;28;20656;-77
2020/12/10 09:50:18;;;;;;;1.70;1.60;;;3.30;99.90;;;;;;5048552;28;20273;-77
2020/12/10 09:52:54;;;;;;;1.47;1.37;;;3.30;99.90;;;;;;5048366;28;20183;-77
2020/12/10 09:58:15;;;;;;;1.60;1.50;;;3.40;99.90;;;;;;5019214;28;20199;-77
2020/12/10 10:00:48;;;;;;;1.63;1.53;;;3.40;99.90;;;;;;5048390;28;20227;-77
2020/12/10 10:03:19;;;;;;;1.63;1.50;;;3.50;99.90;;;;;;5047891;28;20712;-77
2020/12/10 10:05:54;;;;;;;2.03;1.70;;;3.50;99.90;;;;;;5048278;28;20558;-77
2020/12/10 10:08:23;;;;;;;2.40;1.67;;;3.50;99.90;;;;;;5048616;28;20200;-77
2020/12/10 10:10:51;;;;;;;1.53;1.43;;;3.50;99.90;;;;;;5048026;28;20199;-77
2020/12/10 10:13:17;;;;;;;1.73;1.63;;;3.60;99.90;;;;;;5047966;28;20253;-77
2020/12/10 10:15:45;;;;;;;2.07;1.87;;;3.60;99.90;;;;;;5048346;28;20208;-77
2020/12/10 10:18:16;;;;;;;2.10;1.90;;;3.60;99.90;;;;;;5049259;28;20200;-77
2020/12/10 10:20:43;;;;;;;2.27;1.93;;;3.60;99.90;;;;;;5047678;28;20800;-77
2020/12/10 10:23:10;;;;;;;2.03;1.83;;;3.60;99.90;;;;;;5047778;28;20218;-77
2020/12/10 10:25:37;;;;;;;1.87;1.77;;;3.60;99.90;;;;;;5047587;28;20203;-77
2020/12/10 10:28:04;;;;;;;1.80;1.70;;;3.60;99.90;;;;;;5047882;28;20673;-77
2020/12/10 10:30:31;;;;;;;2.10;1.90;;;3.60;99.90;;;;;;5047823;28;20324;-77
2020/12/10 10:32:58;;;;;;;1.57;1.47;;;3.60;99.90;;;;;;5047408;28;20199;-77
2020/12/10 10:35:25;;;;;;;2.20;2.00;;;3.60;99.90;;;;;;5047256;28;20273;-77
2020/12/10 10:37:53;;;;;;;1.73;1.50;;;3.60;99.90;;;;;;5047924;28;20199;-77
2020/12/10 10:40:20;;;;;;;2.57;1.80;;;3.60;99.90;;;;;;5047762;28;20265;-77
2020/12/10 10:42:47;;;;;;;1.80;1.70;;;3.60;99.90;;;;;;5047544;28;20203;-77
2020/12/10 10:45:15;;;;;;;1.50;1.40;;;3.60;99.90;;;;;;5047683;28;20209;-77
2020/12/10 10:47:42;;;;;;;2.10;1.90;;;3.60;99.90;;;;;;5049312;28;20562;-77
2020/12/10 10:50:09;;;;;;;1.60;1.50;;;3.60;99.90;;;;;;5047860;28;20207;-77
2020/12/10 10:52:36;;;;;;;2.47;1.50;;;3.60;99.90;;;;;;5049134;28;20609;-77
2020/12/10 10:55:04;;;;;;;1.70;1.60;;;3.60;99.90;;;;;;5049134;28;20598;-77
2020/12/10 10:57:31;;;;;;;2.00;1.80;;;3.60;99.90;;;;;;5047877;28;20208;-77
2020/12/10 10:59:58;;;;;;;1.97;1.57;;;3.60;99.90;;;;;;5047620;28;20685;-77
2020/12/10 11:02:27;;;;;;;1.63;1.50;;;3.60;99.90;;;;;;5047194;28;20196;-77
2020/12/10 11:04:55;;;;;;;1.50;1.40;;;3.60;99.90;;;;;;5047233;28;20215;-77
2020/12/10 11:07:22;;;;;;;1.50;1.40;;;3.60;99.90;;;;;;5047875;28;20576;-77
2020/12/10 11:09:49;;;;;;;2.00;1.53;;;3.60;99.90;;;;;;5047507;28;20211;-77
2020/12/10 11:12:16;;;;;;;1.90;1.77;;;3.60;99.90;;;;;;5047334;28;20218;-77
2020/12/10 11:14:43;;;;;;;1.93;1.80;;;3.60;99.90;;;;;;5047609;28;20207;-77
2020/12/10 11:17:10;;;;;;;2.00;1.77;;;3.60;99.90;;;;;;5047277;28;20633;-77
2020/12/10 11:19:37;;;;;;;2.30;2.10;;;3.60;99.90;;;;;;5047497;28;20212;-77
2020/12/10 11:22:04;;;;;;;2.53;2.00;;;3.60;99.90;;;;;;5047555;28;20219;-77
2020/12/10 11:24:31;;;;;;;2.53;2.27;;;3.60;99.90;;;;;;5047205;28;20685;-77
2020/12/10 11:26:59;;;;;;;2.47;2.27;;;3.60;99.90;;;;;;5047552;28;20567;-77
2020/12/10 11:29:26;;;;;;;2.47;2.00;;;3.60;99.90;;;;;;5050639;28;20310;-77
2020/12/10 11:31:54;;;;;;;2.43;2.10;;;3.60;99.90;;;;;;5068366;28;20521;-77
2020/12/10 11:34:21;;;;;;;2.43;2.23;;;3.60;99.90;;;;;;5039147;28;20211;-77
2020/12/10 11:36:49;;;;;;;2.53;1.90;;;3.60;99.90;;;;;;5031356;28;20210;-77
2020/12/10 11:39:16;;;;;;;2.30;2.00;;;3.50;99.90;;;;;;5030421;28;20226;-77
2020/12/10 11:41:43;;;;;;;2.07;1.87;;;3.60;99.90;;;;;;5030754;28;20261;-77
2020/12/10 11:44:11;;;;;;;2.40;2.20;;;3.60;99.90;;;;;;5031027;28;20626;-77
2020/12/10 11:46:39;;;;;;;1.80;1.70;;;3.60;99.90;;;;;;5032137;28;20199;-77
2020/12/10 11:49:06;;;;;;;2.53;1.90;;;3.60;99.90;;;;;;5034357;28;20294;-77
2020/12/10 11:51:34;;;;;;;1.93;1.70;;;3.60;99.90;;;;;;5034137;28;20282;-77
2020/12/10 11:54:03;;;;;;;2.60;1.93;;;3.60;99.90;;;;;;5033722;28;20290;-77
2020/12/10 11:56:30;;;;;;;2.27;1.90;;;3.60;99.90;;;;;;5034101;28;20394;-77
2020/12/10 11:58:58;;;;;;;1.83;1.60;;;3.60;99.90;;;;;;5034323;28;20203;-77
2020/12/10 12:01:25;;;;;;;1.70;1.60;;;3.60;99.90;;;;;;5033852;28;20206;-77
2020/12/10 12:03:52;;;;;;;4.60;1.70;;;3.60;99.90;;;;;;5034355;28;20269;-77
2020/12/10 12:06:21;;;;;;;1.80;1.70;;;3.60;99.90;;;;;;5034032;28;20295;-77
2020/12/10 12:08:50;;;;;;;1.70;1.60;;;3.60;99.90;;;;;;5034245;28;20196;-77
2020/12/10 12:11:26;;;;;;;1.87;1.70;;;3.70;99.90;;;;;;5034542;28;20199;-77
2020/12/10 12:13:53;;;;;;;1.70;1.60;;;3.60;99.90;;;;;;5033643;28;20214;-77
2020/12/10 12:16:21;;;;;;;1.70;1.60;;;3.60;99.90;;;;;;5033964;28;20198;-77
2020/12/10 12:18:49;;;;;;;1.70;1.60;;;3.60;99.90;;;;;;5034408;28;20204;-77
2020/12/10 12:21:36;;;;;;;1.60;1.50;;;3.70;99.90;;;;;;5034186;28;20277;-77
2020/12/10 12:24:03;;;;;;;1.70;1.60;;;3.70;99.90;;;;;;5033063;28;20192;-77
2020/12/10 12:26:32;;;;;;;1.57;1.47;;;3.70;99.90;;;;;;5033559;28;20204;-77
2020/12/10 12:29:00;;;;;;;1.63;1.53;;;3.70;99.90;;;;;;5044015;28;20626;-77
2020/12/10 12:31:34;;;;;;;1.53;1.43;;;3.70;99.90;;;;;;5052807;28;20219;-77
2020/12/10 12:34:06;;;;;;;1.70;1.40;;;3.70;99.90;;;;;;5053938;28;20199;-77
2020/12/10 12:36:33;;;;;;;1.50;1.30;;;3.60;99.90;;;;;;5071080;28;20206;-77
2020/12/10 12:39:00;;;;;;;1.30;1.20;;;3.60;99.90;;;;;;5052953;28;20215;-77
2020/12/10 12:41:32;;;;;;;1.53;1.33;;;3.60;99.90;;;;;;5071470;28;20214;-77
2020/12/10 12:44:00;;;;;;;1.73;1.63;;;3.70;99.90;;;;;;5053077;28;20266;-77
2020/12/10 12:46:27;;;;;;;1.70;1.60;;;3.60;99.90;;;;;;5053602;28;20557;-77
2020/12/10 12:48:55;;;;;;;1.57;1.47;;;3.60;99.90;;;;;;5053738;28;20246;-77
2020/12/10 12:51:22;;;;;;;1.83;1.67;;;3.60;99.90;;;;;;5053488;28;20721;-77
2020/12/10 12:53:52;;;;;;;1.43;1.33;;;3.50;99.90;;;;;;5052807;28;20763;-77
2020/12/10 12:56:22;;;;;;;1.87;1.50;;;3.50;99.90;;;;;;5053307;28;20203;-77
2020/12/10 12:58:51;;;;;;;1.53;1.43;;;3.50;99.90;;;;;;5070463;28;20194;-77
2020/12/10 13:01:19;;;;;;;3.47;1.60;;;3.50;99.90;;;;;;5052916;28;20198;-77
2020/12/10 13:03:46;;;;;;;1.60;1.50;;;3.50;99.90;;;;;;5052861;28;20778;-77
2020/12/10 13:06:14;;;;;;;1.87;1.63;;;3.40;99.90;;;;;;5052869;28;20195;-77
2020/12/10 13:08:41;;;;;;;2.10;1.33;;;3.40;99.90;;;;;;5052591;28;20213;-77
2020/12/10 13:11:08;;;;;;;1.67;1.50;;;3.40;99.90;;;;;;5053043;28;20302;-77
2020/12/10 13:13:35;;;;;;;1.50;1.40;;;3.40;99.90;;;;;;5052906;28;20296;-77